Time;durP1;ratioP1;P1;durP2;ratioP2;P2;SDS_P1;SDS_P2;PMS_P1;PMS_P2;Temp;Humidity;BMP_temperature;BMP_pressure;BME280_temperature;BME280_humidity;BME280_pressure;Samples;Min_cycle;Max_cycle;Signal;HPM_P1;HPM_P2
2023/01/05 00:02:15;;;;;;;5.10;1.13;;;;;;;10.29;100.00;100174.41;5062853;28;20462;-73
2023/01/05 00:04:42;;;;;;;6.13;1.13;;;;;;;10.26;100.00;100177.72;5063646;28;20501;-74
2023/01/05 00:07:08;;;;;;;7.60;1.30;;;;;;;10.26;100.00;100176.91;5064400;28;20473;-73
2023/01/05 00:09:35;;;;;;;7.63;2.10;;;;;;;10.29;100.00;100184.44;5063614;28;20524;-73
2023/01/05 00:23:03;;;;;;;8.10;1.47;;;;;;;10.29;100.00;100189.84;5063154;28;20445;-73
2023/01/05 00:25:32;;;;;;;7.63;1.10;;;;;;;10.27;100.00;100186.63;5063078;28;20447;-74
2023/01/05 00:27:59;;;;;;;4.20;0.63;;;;;;;10.28;100.00;100197.16;5062415;28;20488;-73
2023/01/05 00:30:30;;;;;;;6.73;1.03;;;;;;;10.42;100.00;100188.19;5059259;28;20469;-71
2023/01/05 00:32:58;;;;;;;6.47;1.30;;;;;;;10.47;100.00;100188.84;5056947;28;20532;-73
2023/01/05 00:35:24;;;;;;;7.23;1.07;;;;;;;10.45;100.00;100195.69;5056836;28;20438;-72
2023/01/05 00:37:51;;;;;;;4.70;1.07;;;;;;;10.41;100.00;100181.16;5057852;28;20434;-73
2023/01/05 00:40:20;;;;;;;4.50;0.90;;;;;;;10.46;100.00;100179.13;5057052;28;20951;-72
2023/01/05 00:42:47;;;;;;;7.93;1.37;;;;;;;10.49;100.00;100175.81;5058088;28;20553;-73
2023/01/05 00:45:15;;;;;;;5.30;0.70;;;;;;;10.51;100.00;100178.19;5056885;28;20457;-72
2023/01/05 00:47:42;;;;;;;5.90;0.77;;;;;;;10.44;100.00;100173.19;5056289;28;21041;-73
2023/01/05 00:50:14;;;;;;;5.17;0.87;;;;;;;10.50;100.00;100176.59;5057157;28;20453;-74
2023/01/05 00:52:40;;;;;;;7.50;1.10;;;;;;;10.52;100.00;100177.88;5056575;28;20482;-74
2023/01/05 00:55:08;;;;;;;7.43;1.13;;;;;;;10.56;100.00;100184.28;5080055;22;20543;-68
2023/01/05 00:57:34;;;;;;;5.63;1.00;;;;;;;10.47;100.00;100179.91;5055740;28;20448;-68
2023/01/05 01:00:01;;;;;;;6.60;1.07;;;;;;;10.42;100.00;100178.16;5055772;28;20430;-68
2023/01/05 01:02:28;;;;;;;10.63;2.77;;;;;;;10.44;100.00;100175.13;5055785;28;20488;-68
2023/01/05 01:04:55;;;;;;;6.93;0.97;;;;;;;10.46;100.00;100179.13;5041211;28;20517;-69
2023/01/05 01:07:23;;;;;;;7.70;0.97;;;;;;;10.59;100.00;100177.44;5035565;28;20512;-67
2023/01/05 01:09:49;;;;;;;7.27;1.13;;;;;;;10.62;100.00;100176.81;5035329;28;20451;-68
2023/01/05 01:12:16;;;;;;;6.00;1.00;;;;;;;10.52;100.00;100177.88;5034623;28;20443;-68
2023/01/05 01:14:45;;;;;;;5.07;1.10;;;;;;;10.54;100.00;100186.50;5035098;28;20502;-68
2023/01/05 01:17:12;;;;;;;5.30;1.07;;;;;;;10.56;100.00;100184.28;5035530;28;20836;-68
2023/01/05 01:19:39;;;;;;;7.17;1.27;;;;;;;10.54;100.00;100191.91;5035427;28;20809;-68
2023/01/05 01:22:05;;;;;;;8.90;0.90;;;;;;;10.53;100.00;100184.09;5035433;28;20447;-68
2023/01/05 01:24:33;;;;;;;14.83;1.13;;;;;;;10.53;100.00;100194.91;5035269;28;20469;-68
2023/01/05 01:27:00;;;;;;;14.50;1.50;;;;;;;10.51;100.00;100197.94;5034966;28;20949;-68
2023/01/05 01:29:26;;;;;;;7.07;0.80;;;;;;;10.52;100.00;100183.28;5035116;28;20575;-68
2023/01/05 01:31:53;;;;;;;7.50;0.93;;;;;;;10.48;100.00;100184.22;5035044;28;20533;-68
2023/01/05 01:34:21;;;;;;;4.97;1.00;;;;;;;10.46;100.00;100181.84;5035139;28;20557;-68
2023/01/05 01:36:47;;;;;;;7.40;1.30;;;;;;;10.47;100.00;100185.34;5035179;28;20438;-68
2023/01/05 01:39:14;;;;;;;10.60;1.47;;;;;;;10.44;100.00;100191.34;5035074;28;20445;-68
2023/01/05 01:41:42;;;;;;;4.63;0.80;;;;;;;10.46;100.00;100184.53;5035100;28;20442;-68
2023/01/05 01:44:46;;;;;;;6.73;1.67;;;;;;;10.48;100.00;100195.06;5034983;28;20455;-69
2023/01/05 01:47:16;;;;;;;5.23;0.97;;;;;;;10.44;100.00;100194.06;5034653;28;20828;-68
2023/01/05 01:49:44;;;;;;;6.93;1.17;;;;;;;10.51;100.00;100197.16;5035171;28;20506;-68
2023/01/05 01:52:11;;;;;;;8.07;1.00;;;;;;;10.54;100.00;100193.84;5034851;28;20530;-68
2023/01/05 01:54:38;;;;;;;4.73;1.10;;;;;;;10.58;100.00;100192.06;5034382;28;20475;-68
2023/01/05 01:57:09;;;;;;;4.90;1.00;;;;;;;10.60;100.00;100196.09;5034750;28;20468;-68
2023/01/05 01:59:36;;;;;;;5.23;0.73;;;;;;;10.63;100.00;100194.69;5034694;28;20430;-68
2023/01/05 02:02:03;;;;;;;4.60;0.90;;;;;;;10.64;100.00;100196.25;5034319;28;20816;-68
2023/01/05 02:04:32;;;;;;;5.63;1.13;;;;;;;10.64;100.00;100187.34;5034156;28;20887;-67
2023/01/05 02:06:59;;;;;;;6.17;1.00;;;;;;;10.65;100.00;100184.31;5034274;28;20445;-68
2023/01/05 02:09:26;;;;;;;6.93;1.53;;;;;;;10.59;100.00;100189.06;5034118;28;20482;-67
2023/01/05 02:12:03;;;;;;;4.93;1.20;;;;;;;10.71;99.37;100185.78;5034458;28;20466;-67
2023/01/05 02:14:39;;;;;;;6.03;1.03;;;;;;;10.66;100.00;100188.63;5034115;28;20459;-67
2023/01/05 02:17:15;;;;;;;4.83;0.80;;;;;;;10.58;100.00;100173.94;5034124;28;20428;-68
2023/01/05 02:20:12;;;;;;;10.60;1.17;;;;;;;10.69;99.66;100179.09;5034418;28;20518;-68
2023/01/05 02:23:04;;;;;;;5.53;1.27;;;;;;;10.68;99.91;100178.28;5033890;28;20427;-68
2023/01/05 02:26:01;;;;;;;4.77;1.27;;;;;;;10.73;99.25;100180.84;5034141;28;20470;-68
2023/01/05 02:28:44;;;;;;;5.47;0.90;;;;;;;10.67;99.38;100176.69;5033760;28;20574;-68
2023/01/05 02:31:18;;;;;;;4.93;1.00;;;;;;;10.62;99.26;100171.38;5034133;28;20434;-68
2023/01/05 02:34:01;;;;;;;6.20;1.67;;;;;;;10.66;98.66;100185.13;5034026;28;20474;-68
2023/01/05 02:36:34;;;;;;;10.43;1.00;;;;;;;10.75;97.74;100189.44;5033976;28;20439;-68
2023/01/05 02:39:05;;;;;;;4.60;0.97;;;;;;;10.73;97.84;100186.28;5033961;28;20518;-68
2023/01/05 02:41:38;;;;;;;5.50;0.90;;;;;;;10.71;98.44;100177.63;5033955;28;20455;-68
2023/01/05 02:44:08;;;;;;;4.00;0.80;;;;;;;10.69;98.71;100190.72;5033833;28;20467;-68
2023/01/05 02:46:36;;;;;;;12.50;1.50;;;;;;;10.69;98.42;100177.16;5033511;28;20445;-68
2023/01/05 02:49:05;;;;;;;9.30;1.20;;;;;;;10.71;97.76;100171.44;5033667;28;20479;-68
2023/01/05 02:51:36;;;;;;;13.90;1.20;;;;;;;10.65;98.12;100172.69;5033711;28;20446;-67
2023/01/05 02:54:08;;;;;;;7.60;0.97;;;;;;;10.62;98.78;100171.38;5033468;28;20569;-68
2023/01/05 02:56:40;;;;;;;6.93;1.50;;;;;;;10.72;97.98;100175.75;5033662;28;20485;-68
2023/01/05 02:59:12;;;;;;;7.67;1.30;;;;;;;10.73;97.71;100161.88;5033616;28;20510;-68
2023/01/05 03:01:46;;;;;;;4.37;0.80;;;;;;;10.68;97.78;100170.16;5033656;28;20534;-67
2023/01/05 03:04:20;;;;;;;4.87;0.77;;;;;;;10.69;96.91;100174.47;5033489;28;20455;-68
2023/01/05 03:06:55;;;;;;;7.00;1.23;;;;;;;10.78;96.01;100174.50;5033491;28;20427;-68
2023/01/05 03:09:24;;;;;;;5.43;1.00;;;;;;;10.71;96.31;100174.94;5033156;28;20516;-68
2023/01/05 03:14:47;;;;;;;9.00;1.03;;;;;;;10.70;95.18;100178.75;5033159;28;20497;-67
2023/01/05 03:17:21;;;;;;;5.17;1.03;;;;;;;10.71;95.54;100179.56;5033378;28;20514;-68
2023/01/05 03:19:50;;;;;;;4.47;0.90;;;;;;;10.69;95.75;100170.94;5033351;28;20438;-68
2023/01/05 03:36:27;;;;;;;11.33;1.07;;;;;;;10.80;94.56;100170.38;5032844;28;20478;-68
2023/01/05 03:38:58;;;;;;;5.10;1.03;;;;;;;10.70;95.58;100184.19;5033137;28;20424;-68
2023/01/05 03:41:27;;;;;;;4.40;0.70;;;;;;;10.61;96.82;100169.78;5032974;28;20498;-68
2023/01/05 03:43:53;;;;;;;5.30;1.13;;;;;;;10.52;97.63;100171.66;5033105;28;20502;-68
2023/01/05 03:46:21;;;;;;;6.00;1.30;;;;;;;10.49;97.55;100183.94;5033078;28;20446;-68
2023/01/05 03:48:50;;;;;;;4.37;1.00;;;;;;;10.33;98.92;100175.38;5032959;28;20621;-68
2023/01/05 03:51:17;;;;;;;6.77;0.97;;;;;;;10.26;100.00;100190.44;5032691;28;20446;-68
2023/01/05 03:53:43;;;;;;;5.23;0.60;;;;;;;10.17;100.00;100187.66;5032681;28;20486;-68
2023/01/05 03:56:10;;;;;;;4.43;0.83;;;;;;;9.99;100.00;100189.44;5032664;28;20960;-68
2023/01/05 03:58:37;;;;;;;4.87;0.80;;;;;;;9.99;100.00;100199.47;5032934;28;20440;-68
2023/01/05 04:01:04;;;;;;;6.93;1.43;;;;;;;9.98;100.00;100187.03;5032660;28;21005;-67
2023/01/05 04:03:31;;;;;;;7.53;0.80;;;;;;;9.89;100.00;100191.59;5032813;28;20548;-68
2023/01/05 04:06:00;;;;;;;4.83;0.97;;;;;;;9.87;100.00;100197.28;5032833;28;20455;-68
2023/01/05 04:08:26;;;;;;;6.87;1.17;;;;;;;9.92;100.00;100202.59;5032770;28;20489;-69
2023/01/05 04:10:53;;;;;;;4.57;0.60;;;;;;;9.94;100.00;100205.00;5032873;28;20439;-68
2023/01/05 04:13:20;;;;;;;5.80;0.80;;;;;;;10.00;100.00;100214.59;5032714;28;20466;-69
2023/01/05 04:15:46;;;;;;;4.60;0.70;;;;;;;10.04;100.00;100215.56;5032510;28;20486;-68
2023/01/05 04:18:13;;;;;;;7.33;1.23;;;;;;;10.01;100.00;100210.78;5032809;28;20538;-68
2023/01/05 04:20:41;;;;;;;4.70;0.73;;;;;;;9.93;100.00;100217.72;5032786;28;20481;-68
2023/01/05 04:23:09;;;;;;;4.80;1.00;;;;;;;9.79;100.00;100220.47;5032784;28;20471;-68
2023/01/05 04:25:35;;;;;;;6.30;1.00;;;;;;;9.67;100.00;100225.59;5032839;28;20498;-68
2023/01/05 04:28:02;;;;;;;6.17;1.13;;;;;;;9.59;100.00;100218.19;5032743;28;20467;-68
2023/01/05 04:30:29;;;;;;;4.40;0.73;;;;;;;9.59;100.00;100224.41;5032527;28;20576;-68
2023/01/05 04:32:55;;;;;;;5.63;0.80;;;;;;;9.54;100.00;100221.03;5032694;28;20450;-68
2023/01/05 04:35:22;;;;;;;8.10;1.50;;;;;;;9.52;100.00;100217.84;5032260;28;21052;-68
2023/01/05 04:37:48;;;;;;;4.70;0.80;;;;;;;9.53;100.00;100222.13;5032565;28;20475;-68
2023/01/05 04:40:16;;;;;;;4.30;0.90;;;;;;;9.52;100.00;100228.66;5032593;28;20635;-68
2023/01/05 04:42:43;;;;;;;5.50;0.77;;;;;;;9.49;100.00;100221.13;5032555;28;20443;-68
2023/01/05 04:45:10;;;;;;;4.30;0.80;;;;;;;9.60;100.00;100247.63;5032452;28;20463;-68
2023/01/05 04:47:37;;;;;;;5.23;0.90;;;;;;;9.67;100.00;100230.22;5034623;28;20469;-68
2023/01/05 04:50:04;;;;;;;4.80;0.63;;;;;;;9.71;100.00;100229.31;5035942;28;20482;-68
2023/01/05 04:52:31;;;;;;;5.53;0.97;;;;;;;9.68;100.00;100242.63;5035967;28;20449;-68
2023/01/05 04:54:57;;;;;;;6.00;0.87;;;;;;;9.65;100.00;100237.81;5035516;28;20470;-68
2023/01/05 04:57:25;;;;;;;5.17;1.17;;;;;;;9.57;100.00;100242.06;5035829;28;20450;-67
2023/01/05 04:59:52;;;;;;;7.47;0.90;;;;;;;9.55;100.00;100231.53;5035898;28;20439;-68
2023/01/05 05:02:19;;;;;;;12.37;1.10;;;;;;;9.55;100.00;100247.75;5035732;28;20451;-68
2023/01/05 05:04:46;;;;;;;9.00;0.90;;;;;;;9.57;100.00;100245.56;5035735;28;20538;-67
2023/01/05 05:07:13;;;;;;;4.00;0.70;;;;;;;9.53;100.00;100246.47;5035732;28;20499;-69
2023/01/05 05:09:39;;;;;;;6.80;1.50;;;;;;;9.56;100.00;100253.94;5035540;28;20494;-69
2023/01/05 05:12:06;;;;;;;5.90;1.33;;;;;;;9.62;100.00;100241.94;5035641;28;20446;-68
2023/01/05 05:14:34;;;;;;;5.80;1.23;;;;;;;9.54;100.00;100240.75;5035250;28;20462;-68
2023/01/05 05:17:01;;;;;;;4.97;0.80;;;;;;;9.62;100.00;100252.75;5035548;28;20446;-68
2023/01/05 05:19:27;;;;;;;4.27;0.93;;;;;;;9.61;100.00;100251.16;5035513;28;20449;-68
2023/01/05 05:21:54;;;;;;;5.77;1.00;;;;;;;9.51;100.00;100243.25;5035499;28;20438;-69
2023/01/05 05:24:20;;;;;;;5.30;1.10;;;;;;;9.56;100.00;100256.66;5035336;28;20463;-68
2023/01/05 05:26:47;;;;;;;9.40;1.43;;;;;;;9.57;100.00;100250.97;5035285;28;20522;-69
2023/01/05 05:29:14;;;;;;;4.70;1.20;;;;;;;9.56;100.00;100251.25;5035253;28;20485;-68
2023/01/05 05:31:42;;;;;;;6.00;1.13;;;;;;;9.54;100.00;100251.56;5035013;28;20952;-68
2023/01/05 05:34:08;;;;;;;7.67;1.57;;;;;;;9.56;100.00;100254.78;5034833;28;20494;-68
2023/01/05 05:36:36;;;;;;;4.63;0.80;;;;;;;9.53;100.00;100249.16;5034843;28;21032;-68
2023/01/05 05:39:03;;;;;;;5.27;1.03;;;;;;;9.53;100.00;100241.84;5035141;28;20447;-68
2023/01/05 05:41:30;;;;;;;5.93;1.40;;;;;;;9.59;100.00;100246.03;5034823;28;20439;-67
2023/01/05 05:43:59;;;;;;;9.43;1.03;;;;;;;9.57;100.00;100236.66;5035006;28;20896;-68
2023/01/05 05:46:26;;;;;;;4.53;0.63;;;;;;;9.57;100.00;100226.63;5034977;28;20474;-67
2023/01/05 05:48:54;;;;;;;8.60;1.20;;;;;;;9.55;100.00;100239.63;5034910;28;20441;-69
2023/01/05 05:51:21;;;;;;;6.30;0.97;;;;;;;9.56;100.00;100253.94;5034935;28;20811;-69
2023/01/05 05:53:47;;;;;;;8.93;1.30;;;;;;;9.52;100.00;100296.25;5034554;28;20481;-70
2023/01/05 05:56:14;;;;;;;5.87;1.00;;;;;;;9.48;100.00;100296.03;5034848;28;20889;-69
2023/01/05 05:58:41;;;;;;;7.20;0.90;;;;;;;9.31;100.00;100304.72;5033968;28;20479;-69
2023/01/05 06:01:07;;;;;;;4.30;0.67;;;;;;;9.19;100.00;100298.22;5034394;28;20445;-68
2023/01/05 06:03:34;;;;;;;4.10;0.60;;;;;;;9.06;100.00;100302.50;5034564;28;20469;-70
2023/01/05 06:06:02;;;;;;;4.00;0.50;;;;;;;8.99;100.00;100288.59;5034621;28;20486;-71
2023/01/05 06:08:29;;;;;;;9.67;1.20;;;;;;;8.88;100.00;100276.34;5034387;28;20538;-69
2023/01/05 06:10:56;;;;;;;3.97;0.50;;;;;;;8.82;100.00;100298.03;5034176;28;20479;-69
2023/01/05 06:13:23;;;;;;;4.00;0.50;;;;;;;8.80;100.00;100286.72;5034052;28;20944;-69
2023/01/05 06:15:50;;;;;;;3.90;0.40;;;;;;;8.75;100.00;100319.22;5034120;28;20967;-69
2023/01/05 06:18:17;;;;;;;5.10;0.60;;;;;;;8.70;100.00;100319.31;5034008;28;20469;-68
2023/01/05 06:20:44;;;;;;;3.90;0.40;;;;;;;8.73;100.00;100310.63;5034029;28;20458;-69
2023/01/05 06:23:12;;;;;;;4.50;0.63;;;;;;;8.71;100.00;100320.91;5033744;28;20937;-69
2023/01/05 06:25:39;;;;;;;4.17;0.50;;;;;;;8.79;100.00;100322.13;5033979;28;20444;-70
2023/01/05 06:28:05;;;;;;;4.07;0.57;;;;;;;8.79;100.00;100322.94;5033930;28;20446;-66
2023/01/05 06:30:32;;;;;;;4.93;0.83;;;;;;;8.81;100.00;100341.56;5033710;28;20487;-66
2023/01/05 06:32:58;;;;;;;5.63;0.70;;;;;;;8.87;100.00;100301.75;5033661;28;20479;-65
2023/01/05 06:35:25;;;;;;;4.77;0.67;;;;;;;8.86;100.00;100327.16;5033645;28;20463;-66
2023/01/05 06:37:51;;;;;;;5.47;0.80;;;;;;;8.92;100.00;100336.78;5033656;28;20449;-65
2023/01/05 06:40:19;;;;;;;7.47;0.70;;;;;;;8.89;100.00;100331.97;5033927;28;20518;-66
2023/01/05 06:42:46;;;;;;;4.00;0.50;;;;;;;8.92;100.00;100334.09;5033901;28;20534;-66
2023/01/05 06:45:14;;;;;;;4.73;0.77;;;;;;;9.01;100.00;100340.41;5033509;28;20497;-66
2023/01/05 06:47:42;;;;;;;4.20;0.70;;;;;;;9.00;100.00;100338.81;5033468;28;20962;-66
2023/01/05 06:50:09;;;;;;;4.40;0.63;;;;;;;9.01;100.00;100337.69;5033739;28;20482;-66
2023/01/05 06:52:38;;;;;;;4.57;0.70;;;;;;;9.03;100.00;100349.81;5033383;28;20446;-66
2023/01/05 06:55:06;;;;;;;5.93;0.93;;;;;;;9.11;100.00;100351.03;5033049;28;20549;-66
2023/01/05 06:57:35;;;;;;;4.20;0.60;;;;;;;9.13;100.00;100354.25;5033571;28;20474;-66
2023/01/05 07:00:12;;;;;;;4.77;1.00;;;;;;;9.17;100.00;100357.97;5033803;28;20448;-66
2023/01/05 07:02:39;;;;;;;7.20;0.80;;;;;;;9.16;100.00;100345.53;5033465;28;20450;-66
2023/01/05 07:05:06;;;;;;;3.97;0.53;;;;;;;9.20;100.00;100348.44;5033274;28;20550;-67
2023/01/05 07:07:33;;;;;;;4.37;0.83;;;;;;;9.26;100.00;100350.78;5033147;28;20531;-66
2023/01/05 07:10:00;;;;;;;4.47;0.70;;;;;;;9.25;100.00;100365.41;5032393;28;20483;-66
2023/01/05 07:12:26;;;;;;;4.30;0.60;;;;;;;9.20;100.00;100370.06;5033458;28;20514;-67
2023/01/05 07:14:54;;;;;;;5.33;0.80;;;;;;;9.33;100.00;100370.09;5033344;28;20469;-67
2023/01/05 07:17:21;;;;;;;4.43;0.70;;;;;;;9.27;100.00;100382.09;5033391;28;20824;-66
2023/01/05 07:19:47;;;;;;;4.07;0.50;;;;;;;9.27;100.00;100379.41;5033289;28;20442;-66
2023/01/05 07:22:14;;;;;;;5.47;1.10;;;;;;;9.20;100.00;100381.66;5033032;28;20449;-66
2023/01/05 07:24:41;;;;;;;4.07;0.57;;;;;;;9.19;100.00;100385.47;5032929;28;21043;-66
2023/01/05 07:27:07;;;;;;;4.10;0.53;;;;;;;9.20;100.00;100387.06;5033233;28;20443;-67
2023/01/05 07:29:35;;;;;;;4.20;0.60;;;;;;;9.23;100.00;100391.09;5032827;28;21010;-69
2023/01/05 07:32:03;;;;;;;4.00;0.50;;;;;;;9.13;100.00;100383.97;5032868;28;20936;-67
2023/01/05 07:34:30;;;;;;;3.97;0.50;;;;;;;9.14;100.00;100400.97;5033079;28;20474;-67
2023/01/05 07:36:57;;;;;;;4.93;0.50;;;;;;;9.14;100.00;100400.97;5032785;28;20964;-67
2023/01/05 07:39:23;;;;;;;3.93;0.43;;;;;;;9.12;100.00;100401.28;5033107;28;20522;-67
2023/01/05 07:41:50;;;;;;;4.30;0.60;;;;;;;9.12;100.00;100406.69;5033097;28;20446;-66
2023/01/05 07:44:17;;;;;;;3.90;0.40;;;;;;;9.06;100.00;100416.75;5033032;28;20550;-68
2023/01/05 07:46:43;;;;;;;4.00;0.50;;;;;;;9.01;100.00;100407.94;5033072;28;20894;-67
2023/01/05 07:49:11;;;;;;;4.30;0.50;;;;;;;8.99;100.00;100412.84;5032737;28;20817;-68
2023/01/05 07:51:38;;;;;;;4.37;0.50;;;;;;;8.93;100.00;100414.00;5032957;28;20574;-67
2023/01/05 07:54:04;;;;;;;4.00;0.43;;;;;;;8.97;100.00;100431.25;5032685;28;20475;-67
2023/01/05 07:56:31;;;;;;;4.20;0.50;;;;;;;8.93;100.00;100431.00;5032654;28;20450;-67
2023/01/05 07:58:58;;;;;;;3.90;0.40;;;;;;;8.90;100.00;100438.91;5032899;28;20470;-70
2023/01/05 08:01:25;;;;;;;5.00;0.50;;;;;;;8.92;100.00;100444.81;5032887;28;20442;-67
2023/01/05 08:03:51;;;;;;;4.07;0.40;;;;;;;8.92;100.00;100444.81;5032531;28;20463;-67
2023/01/05 08:06:20;;;;;;;4.57;0.70;;;;;;;8.99;100.00;100456.06;5032929;28;20471;-67
2023/01/05 08:08:47;;;;;;;4.53;0.60;;;;;;;9.04;100.00;100466.81;5032840;28;20538;-67
2023/01/05 08:11:15;;;;;;;5.67;0.63;;;;;;;9.06;100.00;100470.00;5032744;28;20482;-67
2023/01/05 08:14:01;;;;;;;6.00;0.60;;;;;;;9.13;100.00;100467.75;5032716;28;20470;-67
2023/01/05 08:16:28;;;;;;;4.00;0.50;;;;;;;9.11;100.00;100475.31;5032838;28;20427;-67
2023/01/05 08:18:55;;;;;;;4.10;0.40;;;;;;;9.01;100.00;100480.88;5032776;28;20439;-67
2023/01/05 08:21:23;;;;;;;7.53;0.63;;;;;;;9.02;100.00;100485.19;5034691;28;20462;-67
2023/01/05 08:23:52;;;;;;;4.10;0.40;;;;;;;9.09;100.00;100485.63;5036461;28;20542;-70
2023/01/05 08:26:21;;;;;;;3.90;0.50;;;;;;;9.12;100.00;100485.06;5036704;28;20449;-66
2023/01/05 08:28:47;;;;;;;3.87;0.50;;;;;;;9.15;100.00;100491.75;5036434;28;20449;-68
2023/01/05 08:31:17;;;;;;;7.70;0.97;;;;;;;9.13;100.00;100499.38;5036021;28;21080;-68
2023/01/05 08:33:44;;;;;;;3.80;0.40;;;;;;;9.10;100.00;100496.13;5035964;28;20459;-66
2023/01/05 08:36:13;;;;;;;8.57;0.93;;;;;;;9.12;100.00;100497.72;5036055;28;20475;-66
2023/01/05 08:38:46;;;;;;;4.20;0.60;;;;;;;9.21;100.00;100501.38;5036194;28;20501;-67
2023/01/05 08:41:15;;;;;;;4.10;0.50;;;;;;;9.19;100.00;100504.38;5036263;28;20489;-69
2023/01/05 08:43:41;;;;;;;3.90;0.60;;;;;;;9.22;100.00;100509.22;5036086;28;20851;-67
2023/01/05 08:46:08;;;;;;;3.90;0.50;;;;;;;9.25;100.00;100510.50;5036056;28;20526;-68
2023/01/05 08:48:34;;;;;;;3.90;0.50;;;;;;;9.20;100.00;100505.97;5036049;28;20451;-68
2023/01/05 08:51:02;;;;;;;4.00;0.50;;;;;;;9.23;100.00;100510.00;5035629;28;21100;-68
2023/01/05 08:53:29;;;;;;;4.43;0.50;;;;;;;9.15;100.00;100519.56;5035728;28;20450;-69
2023/01/05 08:55:57;;;;;;;4.60;0.50;;;;;;;9.21;100.00;100512.19;5035956;28;20434;-69
2023/01/05 08:58:23;;;;;;;4.40;0.60;;;;;;;9.21;100.00;100518.41;5035845;28;20454;-68
2023/01/05 09:00:50;;;;;;;3.90;0.40;;;;;;;9.13;100.00;100531.78;5035881;28;20809;-69
2023/01/05 09:03:16;;;;;;;3.70;0.40;;;;;;;9.21;99.51;100529.22;5035390;28;20951;-69
2023/01/05 09:05:43;;;;;;;3.93;0.60;;;;;;;9.15;99.63;100530.38;5035768;28;20466;-68
2023/01/05 09:08:10;;;;;;;4.00;0.50;;;;;;;9.15;99.92;100529.59;5035421;28;20479;-68
2023/01/05 09:10:36;;;;;;;3.90;0.50;;;;;;;9.23;99.58;100531.63;5035505;28;20849;-68
2023/01/05 09:13:04;;;;;;;4.70;0.57;;;;;;;9.20;98.65;100538.41;5035269;28;20486;-68
2023/01/05 09:15:31;;;;;;;4.20;0.73;;;;;;;9.26;98.49;100545.38;5035452;28;20467;-68
2023/01/05 09:17:57;;;;;;;3.80;0.40;;;;;;;9.32;98.27;100549.59;5035488;28;20447;-68
2023/01/05 09:20:24;;;;;;;4.13;0.50;;;;;;;9.30;97.34;100549.09;5035364;28;20442;-68
2023/01/05 09:22:50;;;;;;;6.27;0.77;;;;;;;9.35;96.94;100550.91;5035135;28;20956;-68
2023/01/05 09:25:17;;;;;;;5.13;0.57;;;;;;;9.34;96.45;100560.94;5034950;28;20842;-68
2023/01/05 09:27:43;;;;;;;5.23;0.80;;;;;;;9.42;95.56;100556.72;5035309;28;20530;-68
2023/01/05 09:30:14;;;;;;;4.40;0.70;;;;;;;9.48;95.64;100550.16;5034893;28;21099;-69
2023/01/05 09:32:41;;;;;;;3.70;0.43;;;;;;;9.49;95.73;100556.38;5034460;28;20470;-68
2023/01/05 09:35:08;;;;;;;3.90;0.60;;;;;;;9.64;95.34;100568.84;5035129;28;20463;-68
2023/01/05 09:37:35;;;;;;;3.97;0.50;;;;;;;9.66;94.09;100578.28;5034907;28;20948;-68
2023/01/05 09:40:01;;;;;;;4.20;0.70;;;;;;;9.82;89.12;100576.13;5034830;28;20453;-68
2023/01/05 09:42:30;;;;;;;5.80;0.70;;;;;;;9.80;89.66;100581.84;5034816;28;20443;-69
2023/01/05 09:45:02;;;;;;;4.37;0.60;;;;;;;9.80;89.17;100611.59;5034661;28;20463;-68
2023/01/05 09:47:35;;;;;;;3.77;0.60;;;;;;;9.77;89.55;100593.22;5034992;28;20518;-69
2023/01/05 09:50:04;;;;;;;3.90;0.53;;;;;;;9.81;87.91;100602.38;5034896;28;20535;-68
2023/01/05 09:52:31;;;;;;;3.80;0.43;;;;;;;9.76;88.41;100605.16;5034570;28;21018;-67
2023/01/05 09:54:57;;;;;;;4.10;0.53;;;;;;;9.72;86.84;100609.53;5034261;28;20517;-68
2023/01/05 09:57:28;;;;;;;7.00;0.60;;;;;;;9.75;85.40;100610.88;5034811;28;20496;-69
2023/01/05 09:59:59;;;;;;;4.20;0.60;;;;;;;9.78;86.46;100608.38;5034456;28;20435;-68
2023/01/05 10:02:33;;;;;;;6.03;0.87;;;;;;;9.83;85.46;100585.84;5034433;28;20442;-69
2023/01/05 10:05:01;;;;;;;5.03;0.70;;;;;;;9.79;85.19;100609.19;5034591;28;20550;-68
2023/01/05 10:07:38;;;;;;;4.10;0.40;;;;;;;9.68;84.81;100615.84;5034568;28;20443;-69
2023/01/05 10:10:13;;;;;;;4.00;0.67;;;;;;;9.75;83.91;100624.41;5034547;28;20431;-69
2023/01/05 10:13:03;;;;;;;6.37;0.50;;;;;;;9.75;83.49;100624.41;5034563;28;20438;-69
2023/01/05 10:15:36;;;;;;;5.47;0.80;;;;;;;9.74;85.26;100637.13;5034399;28;20469;-69
2023/01/05 10:18:11;;;;;;;5.13;0.90;;;;;;;9.68;83.24;100632.06;5034423;28;20428;-69
2023/01/05 10:21:00;;;;;;;4.63;0.70;;;;;;;9.70;82.16;100630.69;5034107;28;20427;-69
2023/01/05 10:23:49;;;;;;;3.80;0.50;;;;;;;9.72;82.63;100633.88;5033930;28;20799;-69
2023/01/05 10:26:24;;;;;;;4.00;0.57;;;;;;;9.64;83.06;100639.97;5033906;28;20447;-69
2023/01/05 10:28:58;;;;;;;6.83;0.83;;;;;;;9.70;82.76;100619.06;5033955;28;20427;-69
2023/01/05 10:31:34;;;;;;;4.03;0.73;;;;;;;9.71;81.78;100629.59;5034101;28;20489;-69
2023/01/05 10:34:13;;;;;;;4.20;0.70;;;;;;;9.69;82.55;100631.75;5033774;28;20469;-68
2023/01/05 10:36:53;;;;;;;4.07;0.53;;;;;;;9.76;82.01;100637.63;5034050;28;20459;-69
2023/01/05 10:39:27;;;;;;;6.33;0.60;;;;;;;9.81;81.25;100637.53;5034039;28;20427;-69
2023/01/05 10:42:01;;;;;;;5.70;0.80;;;;;;;9.86;81.67;100628.53;5033923;28;20434;-68
2023/01/05 10:44:46;;;;;;;4.00;0.67;;;;;;;9.91;80.93;100649.28;5033998;28;20841;-69
2023/01/05 10:47:14;;;;;;;6.80;0.73;;;;;;;9.86;80.85;100650.19;5033561;28;20905;-69
2023/01/05 10:49:45;;;;;;;6.00;0.70;;;;;;;9.87;80.73;100654.47;5033457;28;20831;-69
2023/01/05 10:52:14;;;;;;;6.90;0.60;;;;;;;9.94;80.43;100648.72;5033716;28;20467;-68
2023/01/05 10:54:44;;;;;;;7.20;1.10;;;;;;;9.91;81.00;100662.81;5033350;28;20510;-69
2023/01/05 10:57:35;;;;;;;7.83;1.10;;;;;;;9.86;81.07;100661.00;5033699;28;20465;-69
2023/01/05 11:00:06;;;;;;;4.90;0.70;;;;;;;9.90;81.33;100664.72;5033367;28;20936;-69
2023/01/05 11:02:35;;;;;;;4.00;0.73;;;;;;;9.90;80.67;100666.63;5033565;28;20425;-69
2023/01/05 11:05:07;;;;;;;4.83;0.50;;;;;;;9.90;80.75;100685.56;5033477;28;20469;-68
2023/01/05 11:07:47;;;;;;;6.23;0.63;;;;;;;9.88;80.73;100683.16;5033557;28;20431;-69
2023/01/05 11:10:27;;;;;;;4.00;0.40;;;;;;;9.94;80.74;100689.28;5033216;28;20936;-69
2023/01/05 11:13:02;;;;;;;5.90;0.73;;;;;;;9.95;81.19;100690.91;5033464;28;20419;-71
2023/01/05 11:15:32;;;;;;;4.00;0.70;;;;;;;9.91;79.85;100716.94;5033350;28;20493;-68
2023/01/05 11:17:59;;;;;;;4.20;0.70;;;;;;;9.91;81.25;100692.59;5033413;28;20447;-68
2023/01/05 11:20:28;;;;;;;7.60;0.70;;;;;;;9.88;80.51;100687.78;5033008;28;20443;-68
2023/01/05 11:22:55;;;;;;;4.70;1.10;;;;;;;9.79;81.67;100701.97;5032979;28;20450;-68
2023/01/05 11:25:28;;;;;;;6.13;0.60;;;;;;;9.83;81.82;100713.00;5033179;28;20462;-68
2023/01/05 11:28:11;;;;;;;5.70;0.80;;;;;;;9.75;82.84;100711.75;5033260;28;20447;-70
2023/01/05 11:30:45;;;;;;;4.60;0.80;;;;;;;9.85;82.21;100702.69;5033091;28;20439;-67
2023/01/05 11:33:24;;;;;;;12.23;0.80;;;;;;;9.87;81.16;100722.13;5033185;28;20450;-66
2023/01/05 11:35:52;;;;;;;5.03;0.70;;;;;;;9.94;81.76;100724.47;5033193;28;20447;-66
2023/01/05 11:38:23;;;;;;;4.00;0.50;;;;;;;9.92;81.95;100726.69;5033090;28;20439;-67
2023/01/05 11:40:50;;;;;;;7.60;0.80;;;;;;;9.98;81.02;100729.00;5032762;28;20419;-65
2023/01/05 11:43:19;;;;;;;4.30;0.50;;;;;;;9.99;81.10;100737.94;5033021;28;20534;-67
2023/01/05 11:45:51;;;;;;;8.80;1.10;;;;;;;9.98;81.06;100730.91;5033049;28;20550;-67
2023/01/05 11:48:20;;;;;;;9.73;1.20;;;;;;;9.92;81.92;100741.00;5032771;28;20839;-67
2023/01/05 11:50:49;;;;;;;7.20;0.90;;;;;;;9.96;81.69;100755.56;5032624;28;20959;-67
2023/01/05 11:53:38;;;;;;;3.80;0.50;;;;;;;9.93;82.48;100752.63;5032850;28;20449;-69
2023/01/05 11:56:14;;;;;;;5.00;0.80;;;;;;;9.91;83.10;100749.41;5034357;28;20974;-70
2023/01/05 11:58:44;;;;;;;5.37;0.60;;;;;;;9.95;81.40;100755.84;5037053;28;20430;-70
2023/01/05 12:01:51;;;;;;;4.17;0.70;;;;;;;9.92;81.54;100748.31;5037314;28;20442;-68
2023/01/05 12:04:54;;;;;;;4.20;0.73;;;;;;;9.93;82.24;100744.50;5036609;28;20990;-68